sensor_id;sensor_type;location;lat;lon;timestamp;pressure;altitude;pressure_sealevel;temperature;humidity
72636;BME280;60679;48.888;15.544;2023-04-06T00:01:02;96468.31;;;-3.75;55.69
72636;BME280;60679;48.888;15.544;2023-04-06T00:03:27;96468.66;;;-3.69;56.13
72636;BME280;60679;48.888;15.544;2023-04-06T00:05:53;96465.75;;;-3.66;55.95
72636;BME280;60679;48.888;15.544;2023-04-06T00:08:18;96460.56;;;-3.77;55.76
72636;BME280;60679;48.888;15.544;2023-04-06T00:10:43;96461.75;;;-3.90;56.25
72636;BME280;60679;48.888;15.544;2023-04-06T00:13:09;96460.03;;;-4.01;56.18
72636;BME280;60679;48.888;15.544;2023-04-06T00:15:35;96457.06;;;-4.07;55.91
72636;BME280;60679;48.888;15.544;2023-04-06T00:18:02;96455.63;;;-4.12;56.40
72636;BME280;60679;48.888;15.544;2023-04-06T00:20:27;96461.63;;;-4.10;56.35
72636;BME280;60679;48.888;15.544;2023-04-06T00:22:53;96453.47;;;-4.06;56.60
72636;BME280;60679;48.888;15.544;2023-04-06T00:25:19;96460.34;;;-4.15;56.36
72636;BME280;60679;48.888;15.544;2023-04-06T00:27:45;96461.13;;;-4.24;56.64
72636;BME280;60679;48.888;15.544;2023-04-06T00:30:10;96461.22;;;-4.26;56.48
72636;BME280;60679;48.888;15.544;2023-04-06T00:32:36;96454.31;;;-4.27;56.79
72636;BME280;60679;48.888;15.544;2023-04-06T00:35:04;96447.75;;;-4.32;56.63
72636;BME280;60679;48.888;15.544;2023-04-06T00:37:31;96450.50;;;-4.34;56.77
72636;BME280;60679;48.888;15.544;2023-04-06T00:39:56;96441.06;;;-4.36;56.56
72636;BME280;60679;48.888;15.544;2023-04-06T00:42:23;96451.41;;;-4.44;56.91
72636;BME280;60679;48.888;15.544;2023-04-06T00:44:55;96440.09;;;-4.56;56.84
72636;BME280;60679;48.888;15.544;2023-04-06T00:47:22;96444.69;;;-4.69;56.85
72636;BME280;60679;48.888;15.544;2023-04-06T00:49:48;96442.69;;;-4.77;56.90
72636;BME280;60679;48.888;15.544;2023-04-06T00:52:14;96448.09;;;-4.78;57.22
72636;BME280;60679;48.888;15.544;2023-04-06T00:54:40;96446.41;;;-4.79;56.85
72636;BME280;60679;48.888;15.544;2023-04-06T00:57:06;96445.56;;;-4.80;57.36
72636;BME280;60679;48.888;15.544;2023-04-06T00:59:31;96446.41;;;-4.79;57.35
72636;BME280;60679;48.888;15.544;2023-04-06T01:01:57;96442.69;;;-4.77;57.55
72636;BME280;60679;48.888;15.544;2023-04-06T01:04:23;96440.78;;;-4.75;57.47
72636;BME280;60679;48.888;15.544;2023-04-06T01:06:49;96441.47;;;-4.73;57.36
72636;BME280;60679;48.888;15.544;2023-04-06T01:09:16;96441.72;;;-4.76;57.14
72636;BME280;60679;48.888;15.544;2023-04-06T01:11:41;96440.19;;;-4.78;57.57
72636;BME280;60679;48.888;15.544;2023-04-06T01:14:07;96441.88;;;-4.77;57.62
72636;BME280;60679;48.888;15.544;2023-04-06T01:16:33;96434.53;;;-4.74;57.64
72636;BME280;60679;48.888;15.544;2023-04-06T01:18:59;96439.78;;;-4.74;57.83
72636;BME280;60679;48.888;15.544;2023-04-06T01:21:24;96438.97;;;-4.74;57.42
72636;BME280;60679;48.888;15.544;2023-04-06T01:23:50;96432.88;;;-4.75;57.53
72636;BME280;60679;48.888;15.544;2023-04-06T01:26:16;96429.50;;;-4.77;57.54
72636;BME280;60679;48.888;15.544;2023-04-06T01:28:41;96434.91;;;-4.78;57.99
72636;BME280;60679;48.888;15.544;2023-04-06T01:31:08;96428.47;;;-4.85;57.81
72636;BME280;60679;48.888;15.544;2023-04-06T01:33:34;96427.31;;;-4.92;57.98
72636;BME280;60679;48.888;15.544;2023-04-06T01:36:00;96430.09;;;-5.05;57.93
72636;BME280;60679;48.888;15.544;2023-04-06T01:38:26;96433.56;;;-5.04;58.14
72636;BME280;60679;48.888;15.544;2023-04-06T01:40:52;96425.69;;;-5.04;58.20
72636;BME280;60679;48.888;15.544;2023-04-06T01:43:18;96432.63;;;-5.03;58.15
72636;BME280;60679;48.888;15.544;2023-04-06T01:45:43;96433.31;;;-5.01;58.39
72636;BME280;60679;48.888;15.544;2023-04-06T01:48:09;96426.28;;;-5.01;58.37
72636;BME280;60679;48.888;15.544;2023-04-06T01:50:35;96421.13;;;-5.02;58.50
72636;BME280;60679;48.888;15.544;2023-04-06T01:53:00;96417.06;;;-5.06;58.64
72636;BME280;60679;48.888;15.544;2023-04-06T01:55:26;96427.00;;;-5.10;58.24
72636;BME280;60679;48.888;15.544;2023-04-06T01:57:51;96424.06;;;-5.16;58.62
72636;BME280;60679;48.888;15.544;2023-04-06T02:00:17;96428.13;;;-5.23;58.59
72636;BME280;60679;48.888;15.544;2023-04-06T02:02:42;96426.09;;;-5.20;58.88
72636;BME280;60679;48.888;15.544;2023-04-06T02:05:08;96426.69;;;-5.16;58.64
72636;BME280;60679;48.888;15.544;2023-04-06T02:07:34;96428.09;;;-5.12;58.60
72636;BME280;60679;48.888;15.544;2023-04-06T02:09:59;96431.56;;;-5.12;58.82
72636;BME280;60679;48.888;15.544;2023-04-06T02:12:25;96424.16;;;-5.18;58.89
72636;BME280;60679;48.888;15.544;2023-04-06T02:14:51;96433.41;;;-5.23;58.90
72636;BME280;60679;48.888;15.544;2023-04-06T02:17:16;96427.28;;;-5.24;58.76
72636;BME280;60679;48.888;15.544;2023-04-06T02:19:42;96424.41;;;-5.21;58.95
72636;BME280;60679;48.888;15.544;2023-04-06T02:22:09;96423.22;;;-5.17;59.20
72636;BME280;60679;48.888;15.544;2023-04-06T02:24:34;96422.38;;;-5.17;59.25
72636;BME280;60679;48.888;15.544;2023-04-06T02:27:00;96419.75;;;-5.17;59.00
72636;BME280;60679;48.888;15.544;2023-04-06T02:29:26;96422.63;;;-5.20;58.92
72636;BME280;60679;48.888;15.544;2023-04-06T02:31:52;96420.38;;;-5.25;59.06
72636;BME280;60679;48.888;15.544;2023-04-06T02:34:17;96427.19;;;-5.22;59.23
72636;BME280;60679;48.888;15.544;2023-04-06T02:36:46;96428.09;;;-5.12;59.16
72636;BME280;60679;48.888;15.544;2023-04-06T02:39:12;96424.38;;;-5.10;59.07
72636;BME280;60679;48.888;15.544;2023-04-06T02:41:38;96419.13;;;-5.10;59.43
72636;BME280;60679;48.888;15.544;2023-04-06T02:44:05;96422.97;;;-5.14;59.16
72636;BME280;60679;48.888;15.544;2023-04-06T02:46:31;96427.41;;;-5.14;59.68
72636;BME280;60679;48.888;15.544;2023-04-06T02:48:56;96415.31;;;-5.17;59.45
72636;BME280;60679;48.888;15.544;2023-04-06T02:51:21;96419.84;;;-5.19;59.55
72636;BME280;60679;48.888;15.544;2023-04-06T02:53:47;96416.75;;;-5.24;59.58
72636;BME280;60679;48.888;15.544;2023-04-06T02:56:12;96419.06;;;-5.31;59.45
72636;BME280;60679;48.888;15.544;2023-04-06T02:58:38;96419.44;;;-5.35;59.47
72636;BME280;60679;48.888;15.544;2023-04-06T03:01:03;96425.31;;;-5.43;59.68
72636;BME280;60679;48.888;15.544;2023-04-06T03:03:29;96422.47;;;-5.51;59.38
72636;BME280;60679;48.888;15.544;2023-04-06T03:05:55;96424.13;;;-5.61;59.78
72636;BME280;60679;48.888;15.544;2023-04-06T03:08:24;96419.50;;;-5.68;59.75
72636;BME280;60679;48.888;15.544;2023-04-06T03:10:50;96423.53;;;-5.75;59.99
72636;BME280;60679;48.888;15.544;2023-04-06T03:13:15;96419.72;;;-5.82;59.96
72636;BME280;60679;48.888;15.544;2023-04-06T03:15:41;96422.78;;;-5.87;59.91
72636;BME280;60679;48.888;15.544;2023-04-06T03:18:06;96417.63;;;-5.89;60.41
72636;BME280;60679;48.888;15.544;2023-04-06T03:20:32;96424.16;;;-5.83;60.26
72636;BME280;60679;48.888;15.544;2023-04-06T03:22:58;96428.22;;;-5.79;60.22
72636;BME280;60679;48.888;15.544;2023-04-06T03:25:23;96429.31;;;-5.81;60.25
72636;BME280;60679;48.888;15.544;2023-04-06T03:27:49;96420.00;;;-5.86;60.13
72636;BME280;60679;48.888;15.544;2023-04-06T03:30:14;96420.16;;;-5.87;60.37
72636;BME280;60679;48.888;15.544;2023-04-06T03:32:43;96433.63;;;-5.92;60.24
72636;BME280;60679;48.888;15.544;2023-04-06T03:35:08;96421.94;;;-5.99;60.39
72636;BME280;60679;48.888;15.544;2023-04-06T03:37:34;96432.91;;;-6.05;60.21
72636;BME280;60679;48.888;15.544;2023-04-06T03:39:59;96428.59;;;-6.06;60.26
72636;BME280;60679;48.888;15.544;2023-04-06T03:42:25;96441.75;;;-6.06;60.40
72636;BME280;60679;48.888;15.544;2023-04-06T03:44:52;96433.00;;;-6.06;60.50
72636;BME280;60679;48.888;15.544;2023-04-06T03:47:17;96436.00;;;-6.00;60.67
72636;BME280;60679;48.888;15.544;2023-04-06T03:50:07;96444.50;;;-5.96;60.65
72636;BME280;60679;48.888;15.544;2023-04-06T03:52:35;96440.44;;;-6.00;60.60
72636;BME280;60679;48.888;15.544;2023-04-06T03:55:01;96449.84;;;-6.09;60.82
72636;BME280;60679;48.888;15.544;2023-04-06T03:57:26;96451.16;;;-6.14;60.41
72636;BME280;60679;48.888;15.544;2023-04-06T03:59:52;96452.47;;;-6.20;60.62
72636;BME280;60679;48.888;15.544;2023-04-06T04:02:17;96448.53;;;-6.25;60.44
72636;BME280;60679;48.888;15.544;2023-04-06T04:04:43;96450.66;;;-6.30;60.63
72636;BME280;60679;48.888;15.544;2023-04-06T04:07:09;96444.09;;;-6.36;61.02
72636;BME280;60679;48.888;15.544;2023-04-06T04:09:34;96445.03;;;-6.37;60.66
72636;BME280;60679;48.888;15.544;2023-04-06T04:12:00;96448.28;;;-6.33;60.82
72636;BME280;60679;48.888;15.544;2023-04-06T04:14:26;96449.34;;;-6.36;60.92
72636;BME280;60679;48.888;15.544;2023-04-06T04:16:54;96448.50;;;-6.36;60.76
72636;BME280;60679;48.888;15.544;2023-04-06T04:19:20;96449.44;;;-6.37;60.87
72636;BME280;60679;48.888;15.544;2023-04-06T04:21:46;96456.16;;;-6.33;60.98
72636;BME280;60679;48.888;15.544;2023-04-06T04:24:15;96449.13;;;-6.33;60.97
72636;BME280;60679;48.888;15.544;2023-04-06T04:26:41;96450.28;;;-6.37;60.90
72636;BME280;60679;48.888;15.544;2023-04-06T04:29:10;96454.59;;;-6.36;61.24
72636;BME280;60679;48.888;15.544;2023-04-06T04:31:38;96447.66;;;-6.37;61.13
72636;BME280;60679;48.888;15.544;2023-04-06T04:34:03;96457.09;;;-6.34;61.19
72636;BME280;60679;48.888;15.544;2023-04-06T04:36:31;96452.34;;;-6.29;61.07
72636;BME280;60679;48.888;15.544;2023-04-06T04:38:57;96464.28;;;-6.25;61.14
72636;BME280;60679;48.888;15.544;2023-04-06T04:41:24;96464.91;;;-6.22;61.02
72636;BME280;60679;48.888;15.544;2023-04-06T04:43:49;96466.44;;;-6.19;60.91
72636;BME280;60679;48.888;15.544;2023-04-06T04:46:15;96465.50;;;-6.18;60.92
72636;BME280;60679;48.888;15.544;2023-04-06T04:48:40;96467.38;;;-6.20;60.88
72636;BME280;60679;48.888;15.544;2023-04-06T04:51:06;96469.78;;;-6.17;61.08
72636;BME280;60679;48.888;15.544;2023-04-06T04:53:31;96469.56;;;-6.14;61.07
72636;BME280;60679;48.888;15.544;2023-04-06T04:55:57;96465.75;;;-6.10;60.84
72636;BME280;60679;48.888;15.544;2023-04-06T04:58:22;96471.47;;;-6.05;61.02
72636;BME280;60679;48.888;15.544;2023-04-06T05:00:48;96477.81;;;-5.97;60.79
72636;BME280;60679;48.888;15.544;2023-04-06T05:03:18;96473.75;;;-5.90;60.93
72636;BME280;60679;48.888;15.544;2023-04-06T05:05:45;96474.09;;;-5.83;61.15
72636;BME280;60679;48.888;15.544;2023-04-06T05:08:11;96467.41;;;-5.76;60.92
72636;BME280;60679;48.888;15.544;2023-04-06T05:10:37;96471.22;;;-5.69;60.65
72636;BME280;60679;48.888;15.544;2023-04-06T05:13:02;96466.81;;;-5.57;60.86
72636;BME280;60679;48.888;15.544;2023-04-06T05:15:28;96471.81;;;-5.43;60.75
72636;BME280;60679;48.888;15.544;2023-04-06T05:17:53;96471.56;;;-5.29;60.46
72636;BME280;60679;48.888;15.544;2023-04-06T05:20:19;96469.59;;;-5.16;60.64
72636;BME280;60679;48.888;15.544;2023-04-06T05:22:44;96462.16;;;-5.00;60.67
72636;BME280;60679;48.888;15.544;2023-04-06T05:25:14;96467.72;;;-4.82;60.37
72636;BME280;60679;48.888;15.544;2023-04-06T05:27:40;96474.38;;;-4.67;60.14
72636;BME280;60679;48.888;15.544;2023-04-06T05:30:06;96474.91;;;-4.52;60.48
72636;BME280;60679;48.888;15.544;2023-04-06T05:32:32;96466.44;;;-4.35;60.03
72636;BME280;60679;48.888;15.544;2023-04-06T05:34:58;96459.19;;;-4.22;60.28
72636;BME280;60679;48.888;15.544;2023-04-06T05:37:23;96470.94;;;-4.05;59.90
72636;BME280;60679;48.888;15.544;2023-04-06T05:39:49;96473.25;;;-3.91;59.77
72636;BME280;60679;48.888;15.544;2023-04-06T05:42:14;96474.69;;;-3.78;59.87
72636;BME280;60679;48.888;15.544;2023-04-06T05:44:40;96471.28;;;-3.69;59.95
72636;BME280;60679;48.888;15.544;2023-04-06T05:47:06;96471.06;;;-3.56;59.89
72636;BME280;60679;48.888;15.544;2023-04-06T05:49:34;96476.25;;;-3.45;60.17
72636;BME280;60679;48.888;15.544;2023-04-06T05:52:00;96477.81;;;-3.33;59.95
72636;BME280;60679;48.888;15.544;2023-04-06T05:54:28;96474.09;;;-3.21;59.56
72636;BME280;60679;48.888;15.544;2023-04-06T05:56:54;96466.91;;;-3.09;59.91
72636;BME280;60679;48.888;15.544;2023-04-06T05:59:22;96472.50;;;-2.93;60.00
72636;BME280;60679;48.888;15.544;2023-04-06T06:01:51;96464.19;;;-2.79;59.90
72636;BME280;60679;48.888;15.544;2023-04-06T06:04:17;96459.06;;;-2.61;59.63
72636;BME280;60679;48.888;15.544;2023-04-06T06:06:42;96464.91;;;-2.48;59.97
72636;BME280;60679;48.888;15.544;2023-04-06T06:09:08;96469.66;;;-2.33;59.47
72636;BME280;60679;48.888;15.544;2023-04-06T06:11:33;96461.41;;;-2.20;59.59
72636;BME280;60679;48.888;15.544;2023-04-06T06:13:58;96465.47;;;-2.06;59.40
72636;BME280;60679;48.888;15.544;2023-04-06T06:16:24;96471.13;;;-1.92;59.49
72636;BME280;60679;48.888;15.544;2023-04-06T06:18:50;96470.53;;;-1.76;59.28
72636;BME280;60679;48.888;15.544;2023-04-06T06:21:15;96470.91;;;-1.61;59.52
72636;BME280;60679;48.888;15.544;2023-04-06T06:23:45;96468.09;;;-1.50;59.39
72636;BME280;60679;48.888;15.544;2023-04-06T06:26:13;96466.78;;;-1.37;58.91
72636;BME280;60679;48.888;15.544;2023-04-06T06:28:42;96462.81;;;-1.23;59.14
72636;BME280;60679;48.888;15.544;2023-04-06T06:31:09;96459.69;;;-1.09;59.29
72636;BME280;60679;48.888;15.544;2023-04-06T06:33:34;96460.56;;;-0.91;59.25
72636;BME280;60679;48.888;15.544;2023-04-06T06:36:00;96452.78;;;-0.75;59.15
72636;BME280;60679;48.888;15.544;2023-04-06T06:38:25;96464.09;;;-0.55;58.88
72636;BME280;60679;48.888;15.544;2023-04-06T06:40:52;96471.69;;;-0.42;58.70
72636;BME280;60679;48.888;15.544;2023-04-06T06:43:18;96468.09;;;-0.33;58.83
72636;BME280;60679;48.888;15.544;2023-04-06T06:45:43;96468.69;;;-0.22;58.93
72636;BME280;60679;48.888;15.544;2023-04-06T06:48:09;96461.34;;;-0.10;58.52
72636;BME280;60679;48.888;15.544;2023-04-06T06:50:35;96458.44;;;0.01;58.44
72636;BME280;60679;48.888;15.544;2023-04-06T06:53:00;96458.06;;;0.14;58.71
72636;BME280;60679;48.888;15.544;2023-04-06T06:55:26;96460.97;;;0.28;58.54
72636;BME280;60679;48.888;15.544;2023-04-06T06:57:53;96461.41;;;0.41;58.39
72636;BME280;60679;48.888;15.544;2023-04-06T07:00:18;96463.47;;;0.55;58.46
72636;BME280;60679;48.888;15.544;2023-04-06T07:02:47;96453.09;;;0.70;58.37
72636;BME280;60679;48.888;15.544;2023-04-06T07:05:13;96461.13;;;0.86;58.15
72636;BME280;60679;48.888;15.544;2023-04-06T07:07:38;96453.22;;;1.02;58.43
72636;BME280;60679;48.888;15.544;2023-04-06T07:10:04;96459.09;;;1.22;58.10
72636;BME280;60679;48.888;15.544;2023-04-06T07:12:30;96460.47;;;1.34;58.03
72636;BME280;60679;48.888;15.544;2023-04-06T07:14:55;96455.06;;;1.52;57.86
72636;BME280;60679;48.888;15.544;2023-04-06T07:17:21;96460.38;;;1.68;57.79
72636;BME280;60679;48.888;15.544;2023-04-06T07:19:47;96450.09;;;1.89;57.70
72636;BME280;60679;48.888;15.544;2023-04-06T07:22:22;96456.28;;;2.06;57.67
72636;BME280;60679;48.888;15.544;2023-04-06T07:24:47;96461.72;;;2.20;57.44
72636;BME280;60679;48.888;15.544;2023-04-06T07:27:13;96446.41;;;2.47;57.15
72636;BME280;60679;48.888;15.544;2023-04-06T07:29:38;96456.13;;;2.86;56.83
72636;BME280;60679;48.888;15.544;2023-04-06T07:32:07;96444.66;;;3.17;56.47
72636;BME280;60679;48.888;15.544;2023-04-06T07:34:35;96451.84;;;3.55;56.29
72636;BME280;60679;48.888;15.544;2023-04-06T07:37:04;96448.94;;;3.87;55.96
72636;BME280;60679;48.888;15.544;2023-04-06T07:39:30;96447.03;;;4.19;55.51
72636;BME280;60679;48.888;15.544;2023-04-06T07:41:55;96444.31;;;4.41;55.57
72636;BME280;60679;48.888;15.544;2023-04-06T07:44:21;96442.34;;;4.73;54.97
72636;BME280;60679;48.888;15.544;2023-04-06T07:46:47;96445.22;;;5.00;54.99
72636;BME280;60679;48.888;15.544;2023-04-06T07:49:12;96443.16;;;5.32;54.48
72636;BME280;60679;48.888;15.544;2023-04-06T07:51:38;96445.69;;;5.69;54.09
72636;BME280;60679;48.888;15.544;2023-04-06T07:54:07;96435.84;;;6.12;53.57
72636;BME280;60679;48.888;15.544;2023-04-06T07:56:33;96436.44;;;6.56;53.22
72636;BME280;60679;48.888;15.544;2023-04-06T07:58:58;96431.44;;;6.81;52.48
72636;BME280;60679;48.888;15.544;2023-04-06T08:01:24;96431.47;;;7.15;52.19
72636;BME280;60679;48.888;15.544;2023-04-06T08:03:50;96428.91;;;7.48;51.97
72636;BME280;60679;48.888;15.544;2023-04-06T08:06:16;96426.59;;;7.92;51.25
72636;BME280;60679;48.888;15.544;2023-04-06T08:08:44;96427.94;;;8.36;50.69
72636;BME280;60679;48.888;15.544;2023-04-06T08:11:10;96421.94;;;8.66;49.97
72636;BME280;60679;48.888;15.544;2023-04-06T08:13:35;96427.72;;;9.03;49.86
72636;BME280;60679;48.888;15.544;2023-04-06T08:16:01;96420.84;;;9.20;49.28
72636;BME280;60679;48.888;15.544;2023-04-06T08:18:27;96422.34;;;9.60;48.71
72636;BME280;60679;48.888;15.544;2023-04-06T08:20:54;96429.56;;;10.11;48.43
72636;BME280;60679;48.888;15.544;2023-04-06T08:23:23;96426.66;;;10.12;48.23
72636;BME280;60679;48.888;15.544;2023-04-06T08:25:50;96422.94;;;10.44;47.88
72636;BME280;60679;48.888;15.544;2023-04-06T08:28:15;96419.81;;;11.15;46.75
72636;BME280;60679;48.888;15.544;2023-04-06T08:30:43;96418.81;;;11.71;46.04
72636;BME280;60679;48.888;15.544;2023-04-06T08:33:09;96410.81;;;12.24;45.48
72636;BME280;60679;48.888;15.544;2023-04-06T08:35:35;96406.00;;;13.02;44.63
72636;BME280;60679;48.888;15.544;2023-04-06T08:38:00;96410.97;;;13.51;44.05
72636;BME280;60679;48.888;15.544;2023-04-06T08:40:27;96404.31;;;14.10;43.01
72636;BME280;60679;48.888;15.544;2023-04-06T08:42:54;96406.09;;;14.78;42.10
72636;BME280;60679;48.888;15.544;2023-04-06T08:45:21;96395.53;;;15.31;41.60
72636;BME280;60679;48.888;15.544;2023-04-06T08:47:51;96387.66;;;15.95;40.91
72636;BME280;60679;48.888;15.544;2023-04-06T08:50:18;96395.09;;;15.99;40.52
72636;BME280;60679;48.888;15.544;2023-04-06T08:52:46;96393.22;;;16.27;40.13
72636;BME280;60679;48.888;15.544;2023-04-06T08:55:12;96388.31;;;14.87;41.72
72636;BME280;60679;48.888;15.544;2023-04-06T08:57:38;96384.28;;;14.73;41.92
72636;BME280;60679;48.888;15.544;2023-04-06T09:00:06;96384.16;;;16.21;39.11
72636;BME280;60679;48.888;15.544;2023-04-06T09:02:38;96380.09;;;14.98;40.92
72636;BME280;60679;48.888;15.544;2023-04-06T09:05:04;96389.34;;;14.36;40.91
72636;BME280;60679;48.888;15.544;2023-04-06T09:07:30;96395.03;;;12.73;43.11
72636;BME280;60679;48.888;15.544;2023-04-06T09:09:58;96392.84;;;11.99;43.32
72636;BME280;60679;48.888;15.544;2023-04-06T09:12:30;96389.47;;;13.61;40.47
72636;BME280;60679;48.888;15.544;2023-04-06T09:14:56;96388.72;;;15.12;38.68
72636;BME280;60679;48.888;15.544;2023-04-06T09:17:27;96391.44;;;13.14;40.83
72636;BME280;60679;48.888;15.544;2023-04-06T09:19:54;96392.75;;;11.76;42.42
72636;BME280;60679;48.888;15.544;2023-04-06T09:22:22;96401.94;;;10.96;43.14
72636;BME280;60679;48.888;15.544;2023-04-06T09:24:51;96386.91;;;12.85;39.61
72636;BME280;60679;48.888;15.544;2023-04-06T09:27:17;96385.50;;;16.99;35.28
72636;BME280;60679;48.888;15.544;2023-04-06T09:29:44;96381.88;;;20.83;31.41
72636;BME280;60679;48.888;15.544;2023-04-06T09:32:11;96380.50;;;23.23;29.14
72636;BME280;60679;48.888;15.544;2023-04-06T09:34:38;96378.50;;;24.69;28.09
72636;BME280;60679;48.888;15.544;2023-04-06T09:37:16;96370.53;;;20.95;32.49
72636;BME280;60679;48.888;15.544;2023-04-06T09:39:43;96396.84;;;20.08;32.43
72636;BME280;60679;48.888;15.544;2023-04-06T09:42:09;96372.28;;;19.68;32.99
72636;BME280;60679;48.888;15.544;2023-04-06T09:44:35;96373.88;;;19.89;33.07
72636;BME280;60679;48.888;15.544;2023-04-06T09:47:02;96357.31;;;25.01;27.20
72636;BME280;60679;48.888;15.544;2023-04-06T09:49:33;96359.19;;;27.45;25.35
72636;BME280;60679;48.888;15.544;2023-04-06T09:52:00;96370.09;;;25.55;26.65
72636;BME280;60679;48.888;15.544;2023-04-06T09:54:31;96357.47;;;28.33;24.17
72636;BME280;60679;48.888;15.544;2023-04-06T09:57:25;96355.69;;;29.94;23.05
72636;BME280;60679;48.888;15.544;2023-04-06T10:00:07;96338.53;;;31.29;22.21
72636;BME280;60679;48.888;15.544;2023-04-06T10:03:01;96347.59;;;32.09;21.56
72636;BME280;60679;48.888;15.544;2023-04-06T10:05:53;96349.63;;;26.34;26.60
72636;BME280;60679;48.888;15.544;2023-04-06T10:08:27;96331.69;;;21.69;30.72
72636;BME280;60679;48.888;15.544;2023-04-06T10:10:55;96351.41;;;24.44;26.80
72636;BME280;60679;48.888;15.544;2023-04-06T10:13:24;96348.16;;;20.78;30.14
72636;BME280;60679;48.888;15.544;2023-04-06T10:15:52;96338.81;;;21.17;28.83
72636;BME280;60679;48.888;15.544;2023-04-06T10:18:18;96330.63;;;29.29;21.48
72636;BME280;60679;48.888;15.544;2023-04-06T10:23:51;96329.56;;;34.03;18.96
72636;BME280;60679;48.888;15.544;2023-04-06T10:26:20;96326.72;;;27.37;24.57
72636;BME280;60679;48.888;15.544;2023-04-06T10:28:47;96319.91;;;27.00;23.82
72636;BME280;60679;48.888;15.544;2023-04-06T10:31:23;96327.41;;;27.08;23.43
72636;BME280;60679;48.888;15.544;2023-04-06T10:34:15;96324.72;;;28.01;22.63
72636;BME280;60679;48.888;15.544;2023-04-06T10:36:41;96314.88;;;21.47;28.72
72636;BME280;60679;48.888;15.544;2023-04-06T10:39:09;96314.84;;;27.83;21.84
72636;BME280;60679;48.888;15.544;2023-04-06T10:44:06;96313.16;;;33.83;18.37
72636;BME280;60679;48.888;15.544;2023-04-06T10:46:33;96322.31;;;24.25;26.07
72636;BME280;60679;48.888;15.544;2023-04-06T10:49:10;96318.44;;;20.02;29.32
72636;BME280;60679;48.888;15.544;2023-04-06T10:51:40;96313.44;;;23.87;24.74
72636;BME280;60679;48.888;15.544;2023-04-06T10:54:09;96304.84;;;28.99;20.43
72636;BME280;60679;48.888;15.544;2023-04-06T10:56:37;96306.66;;;25.05;24.26
72636;BME280;60679;48.888;15.544;2023-04-06T10:59:05;96309.81;;;22.06;26.94
72636;BME280;60679;48.888;15.544;2023-04-06T11:01:31;96310.56;;;27.30;21.49
72636;BME280;60679;48.888;15.544;2023-04-06T11:03:57;96302.44;;;30.20;19.02
72636;BME280;60679;48.888;15.544;2023-04-06T11:06:31;96293.28;;;32.10;18.25
72636;BME280;60679;48.888;15.544;2023-04-06T11:08:58;96290.97;;;34.42;16.77
72636;BME280;60679;48.888;15.544;2023-04-06T11:11:26;96291.97;;;36.09;16.12
72636;BME280;60679;48.888;15.544;2023-04-06T11:13:57;96293.22;;;28.05;21.89
72636;BME280;60679;48.888;15.544;2023-04-06T11:16:27;96289.09;;;31.29;18.67
72636;BME280;60679;48.888;15.544;2023-04-06T11:19:00;96277.59;;;35.44;16.00
72636;BME280;60679;48.888;15.544;2023-04-06T11:21:37;96279.94;;;37.21;15.57
72636;BME280;60679;48.888;15.544;2023-04-06T11:24:13;96289.28;;;33.70;17.09
72636;BME280;60679;48.888;15.544;2023-04-06T11:26:44;96285.41;;;36.42;15.38
72636;BME280;60679;48.888;15.544;2023-04-06T11:29:18;96285.59;;;28.94;20.98
72636;BME280;60679;48.888;15.544;2023-04-06T11:31:51;96278.03;;;32.39;17.52
72636;BME280;60679;48.888;15.544;2023-04-06T11:34:19;96276.25;;;34.75;16.04
72636;BME280;60679;48.888;15.544;2023-04-06T11:36:47;96269.72;;;35.97;15.54
72636;BME280;60679;48.888;15.544;2023-04-06T11:39:17;96276.91;;;37.69;14.25
72636;BME280;60679;48.888;15.544;2023-04-06T11:41:54;96279.06;;;30.37;19.21
72636;BME280;60679;48.888;15.544;2023-04-06T11:44:33;96268.72;;;28.28;20.41
72636;BME280;60679;48.888;15.544;2023-04-06T11:47:01;96268.78;;;33.65;16.35
72636;BME280;60679;48.888;15.544;2023-04-06T11:49:32;96265.50;;;31.27;18.13
72636;BME280;60679;48.888;15.544;2023-04-06T11:51:58;96267.00;;;29.39;19.49
72636;BME280;60679;48.888;15.544;2023-04-06T11:54:36;96266.19;;;30.44;17.89
72636;BME280;60679;48.888;15.544;2023-04-06T11:57:03;96255.78;;;29.15;18.81
72636;BME280;60679;48.888;15.544;2023-04-06T11:59:29;96255.41;;;31.81;16.75
72636;BME280;60679;48.888;15.544;2023-04-06T12:01:56;96255.31;;;32.25;17.09
72636;BME280;60679;48.888;15.544;2023-04-06T12:04:22;96254.25;;;29.83;18.62
72636;BME280;60679;48.888;15.544;2023-04-06T12:06:48;96261.75;;;29.26;18.64
72636;BME280;60679;48.888;15.544;2023-04-06T12:09:13;96253.81;;;25.07;21.97
72636;BME280;60679;48.888;15.544;2023-04-06T12:11:39;96270.97;;;21.65;24.11
72636;BME280;60679;48.888;15.544;2023-04-06T12:14:06;96250.31;;;31.12;16.62
72636;BME280;60679;48.888;15.544;2023-04-06T12:16:33;96246.66;;;35.07;14.61
72636;BME280;60679;48.888;15.544;2023-04-06T12:18:59;96244.69;;;36.80;13.96
72636;BME280;60679;48.888;15.544;2023-04-06T12:21:27;96234.28;;;38.30;13.21
72636;BME280;60679;48.888;15.544;2023-04-06T12:23:56;96241.94;;;38.26;13.22
72636;BME280;60679;48.888;15.544;2023-04-06T12:26:22;96239.91;;;38.05;13.19
72636;BME280;60679;48.888;15.544;2023-04-06T12:28:48;96234.75;;;33.25;16.27
72636;BME280;60679;48.888;15.544;2023-04-06T12:31:20;96235.47;;;27.35;19.90
72636;BME280;60679;48.888;15.544;2023-04-06T12:33:51;96233.25;;;32.54;16.14
72636;BME280;60679;48.888;15.544;2023-04-06T12:36:19;96231.72;;;36.65;13.60
72636;BME280;60679;48.888;15.544;2023-04-06T12:38:48;96229.75;;;37.58;13.38
72636;BME280;60679;48.888;15.544;2023-04-06T12:41:15;96226.50;;;37.42;13.41
72636;BME280;60679;48.888;15.544;2023-04-06T12:43:41;96217.94;;;37.21;13.89
72636;BME280;60679;48.888;15.544;2023-04-06T12:46:08;96219.25;;;37.45;13.07
72636;BME280;60679;48.888;15.544;2023-04-06T12:48:34;96215.31;;;35.75;14.39
72636;BME280;60679;48.888;15.544;2023-04-06T12:51:09;96209.03;;;35.96;14.22
72636;BME280;60679;48.888;15.544;2023-04-06T12:53:35;96214.41;;;26.54;19.98
72636;BME280;60679;48.888;15.544;2023-04-06T12:56:02;96219.78;;;26.50;19.70